createdAt,value
2019-04-14T00:00:05.526Z,8.60
2019-04-14T00:02:38.761Z,8.50
2019-04-14T00:05:08.843Z,8.50
2019-04-14T00:07:38.368Z,8.50
2019-04-14T00:10:07.806Z,8.50
2019-04-14T00:12:36.069Z,8.50
2019-04-14T00:15:19.338Z,8.50
2019-04-14T00:17:39.148Z,8.50
2019-04-14T00:20:07.467Z,8.50
2019-04-14T00:22:35.798Z,8.50
2019-04-14T00:25:06.504Z,8.50
2019-04-14T00:27:34.729Z,8.50
2019-04-14T00:30:05.479Z,8.40
2019-04-14T00:32:35.554Z,8.40
2019-04-14T00:35:12.378Z,8.40
2019-04-14T00:37:45.083Z,8.30
2019-04-14T00:40:26.633Z,8.30
2019-04-14T00:43:02.725Z,8.30
2019-04-14T00:45:43.461Z,8.30
2019-04-14T00:48:11.832Z,8.20
2019-04-14T00:50:37.245Z,8.20
2019-04-14T00:53:05.564Z,8.20
2019-04-14T00:55:33.865Z,8.20
2019-04-14T00:58:02.112Z,8.20
2019-04-14T01:00:30.444Z,8.20
2019-04-14T01:02:58.719Z,8.20
2019-04-14T01:05:26.980Z,8.20
2019-04-14T01:07:56.527Z,8.20
2019-04-14T01:10:25.658Z,8.10
2019-04-14T01:12:54.053Z,8.10
2019-04-14T01:15:22.309Z,8.10
2019-04-14T01:17:50.689Z,8.10
2019-04-14T01:20:19.015Z,8.00
2019-04-14T01:22:47.341Z,8.00
2019-04-14T01:25:15.613Z,8.00
2019-04-14T01:27:44.937Z,8.00
2019-04-14T01:30:13.423Z,8.00
2019-04-14T01:32:41.697Z,8.00
2019-04-14T01:35:10.002Z,8.00
2019-04-14T01:37:38.239Z,8.00
2019-04-14T01:40:07.548Z,8.00
2019-04-14T01:42:36.026Z,8.00
2019-04-14T01:45:05.907Z,8.00
2019-04-14T01:47:34.148Z,8.00
2019-04-14T01:50:02.412Z,8.00
2019-04-14T01:52:32.295Z,8.00
2019-04-14T01:55:02.861Z,8.00
2019-04-14T01:57:50.230Z,8.00
2019-04-14T02:00:26.999Z,8.00
2019-04-14T02:02:55.419Z,8.00
2019-04-14T02:05:23.677Z,7.90
2019-04-14T02:07:51.953Z,8.00
2019-04-14T02:10:21.541Z,8.00
2019-04-14T02:12:50.066Z,8.00
2019-04-14T02:15:18.302Z,7.90
2019-04-14T02:17:46.562Z,7.80
2019-04-14T02:20:14.815Z,7.90
2019-04-14T02:22:44.049Z,7.80
2019-04-14T02:25:12.461Z,7.90
2019-04-14T02:27:40.771Z,7.80
2019-04-14T02:30:14.570Z,7.80
2019-04-14T02:33:09.571Z,7.90
2019-04-14T02:35:40.933Z,7.80
2019-04-14T02:38:14.353Z,7.90
2019-04-14T02:40:49.227Z,7.70
2019-04-14T02:43:09.861Z,7.80
2019-04-14T02:45:44.577Z,7.70
2019-04-14T02:48:18.346Z,7.70
2019-04-14T02:50:30.419Z,7.70
2019-04-14T02:53:09.104Z,7.70
2019-04-14T02:55:29.997Z,7.80
2019-04-14T03:00:43.704Z,7.70
2019-04-14T03:03:10.871Z,7.70
2019-04-14T03:05:37.233Z,7.60
2019-04-14T03:10:49.764Z,7.60
2019-04-14T03:13:08.350Z,7.60
2019-04-14T03:18:23.995Z,7.70
2019-04-14T03:20:42.894Z,7.70
2019-04-14T03:23:24.926Z,7.60
2019-04-14T03:25:43.646Z,7.60
2019-04-14T03:28:26.206Z,7.50
2019-04-14T03:34:11.111Z,7.60
2019-04-14T03:36:43.694Z,7.50
2019-04-14T03:38:50.175Z,7.60
2019-04-14T03:41:17.123Z,7.60
2019-04-14T03:43:36.786Z,7.50
2019-04-14T03:48:52.781Z,7.50
2019-04-14T03:53:32.499Z,7.50
2019-04-14T03:55:55.536Z,7.50
2019-04-14T03:58:22.492Z,7.50
2019-04-14T04:00:51.463Z,7.50
2019-04-14T04:03:19.847Z,7.50
2019-04-14T04:05:48.086Z,7.50
2019-04-14T04:08:16.318Z,7.40
2019-04-14T04:10:46.516Z,7.40
2019-04-14T04:13:15.095Z,7.40
2019-04-14T04:15:43.781Z,7.40
2019-04-14T04:18:19.943Z,7.40
2019-04-14T04:20:52.703Z,7.50
2019-04-14T04:23:31.840Z,7.40
2019-04-14T04:26:14.659Z,7.40
2019-04-14T04:28:45.091Z,7.50
2019-04-14T04:31:15.614Z,7.50
2019-04-14T04:33:45.801Z,7.40
2019-04-14T04:36:16.031Z,7.40
2019-04-14T04:38:48.978Z,7.40
2019-04-14T04:41:17.211Z,7.40
2019-04-14T04:43:45.477Z,7.40
2019-04-14T04:46:13.749Z,7.40
2019-04-14T04:48:41.995Z,7.40
2019-04-14T04:51:10.306Z,7.40
2019-04-14T04:53:39.768Z,7.40
2019-04-14T04:56:08.195Z,7.40
2019-04-14T04:58:37.184Z,7.40
2019-04-14T05:01:05.772Z,7.40
2019-04-14T05:03:34.100Z,7.40
2019-04-14T05:06:24.988Z,7.40
2019-04-14T05:08:54.940Z,7.40
2019-04-14T05:11:25.096Z,7.40
2019-04-14T05:13:55.361Z,7.30
2019-04-14T05:16:23.885Z,7.40
2019-04-14T05:18:53.043Z,7.40
2019-04-14T05:21:21.468Z,7.40
2019-04-14T05:23:49.872Z,7.40
2019-04-14T05:26:18.119Z,7.30
2019-04-14T05:28:46.384Z,7.30
2019-04-14T05:31:14.624Z,7.40
2019-04-14T05:33:42.898Z,7.40
2019-04-14T05:36:11.158Z,7.50
2019-04-14T05:38:40.668Z,7.40
2019-04-14T05:41:09.235Z,7.40
2019-04-14T05:43:46.712Z,7.40
2019-04-14T05:46:07.776Z,7.40
2019-04-14T05:48:36.198Z,7.50
2019-04-14T05:51:04.466Z,7.50
2019-04-14T05:53:32.728Z,7.50
2019-04-14T05:56:01.452Z,7.50
2019-04-14T05:58:29.930Z,7.50
2019-04-14T06:00:58.194Z,7.50
2019-04-14T06:03:27.685Z,7.60
2019-04-14T06:05:56.108Z,7.60
2019-04-14T06:08:24.354Z,7.60
2019-04-14T06:10:52.612Z,7.70
2019-04-14T06:13:20.879Z,7.70
2019-04-14T06:15:49.112Z,7.60
2019-04-14T06:18:17.384Z,7.70
2019-04-14T06:20:45.627Z,7.60
2019-04-14T06:23:13.889Z,7.70
2019-04-14T06:25:42.147Z,7.70
2019-04-14T06:28:10.387Z,7.80
2019-04-14T06:30:46.000Z,7.70
2019-04-14T06:33:27.701Z,7.70
2019-04-14T06:36:06.844Z,7.90
2019-04-14T06:38:36.720Z,7.80
2019-04-14T06:41:06.636Z,7.70
2019-04-14T06:43:34.879Z,7.80
2019-04-14T06:46:03.126Z,7.80
2019-04-14T06:48:31.378Z,7.80
2019-04-14T06:50:59.624Z,7.80
2019-04-14T06:53:27.899Z,7.90
2019-04-14T06:55:56.136Z,7.80
2019-04-14T06:58:24.393Z,7.80
2019-04-14T07:00:52.662Z,7.90
2019-04-14T07:03:20.911Z,8.00
2019-04-14T07:05:49.160Z,8.00
2019-04-14T07:08:17.424Z,8.10
2019-04-14T07:10:45.675Z,8.20
2019-04-14T07:13:14.077Z,8.30
2019-04-14T07:15:42.374Z,8.30
2019-04-14T07:18:12.052Z,8.40
2019-04-14T07:20:40.536Z,8.50
2019-04-14T07:23:08.805Z,8.50
2019-04-14T07:25:37.082Z,8.40
2019-04-14T07:28:05.354Z,8.40
2019-04-14T07:30:41.214Z,8.40
2019-04-14T07:33:17.282Z,8.50
2019-04-14T07:35:49.908Z,8.60
2019-04-14T07:38:19.894Z,8.60
2019-04-14T07:40:49.954Z,8.70
2019-04-14T07:43:22.666Z,8.70
2019-04-14T07:46:04.577Z,8.80
2019-04-14T07:48:37.485Z,9.00
2019-04-14T07:51:10.083Z,9.00
2019-04-14T07:53:46.266Z,9.10
2019-04-14T07:56:16.277Z,9.10
2019-04-14T07:59:04.501Z,9.20
2019-04-14T08:01:34.427Z,9.20
2019-04-14T08:04:16.466Z,9.20
2019-04-14T08:06:46.444Z,9.20
2019-04-14T08:09:14.673Z,9.20
2019-04-14T08:11:42.940Z,9.30
2019-04-14T08:14:11.179Z,9.30
2019-04-14T08:16:39.468Z,9.30
2019-04-14T08:19:07.712Z,9.30
2019-04-14T08:21:35.961Z,9.30
2019-04-14T08:24:04.277Z,9.30
2019-04-14T08:26:32.587Z,9.40
2019-04-14T08:29:00.869Z,9.50
2019-04-14T08:31:29.131Z,9.60
2019-04-14T08:33:57.409Z,9.70
2019-04-14T08:36:25.764Z,9.80
2019-04-14T08:38:54.023Z,9.90
2019-04-14T08:41:22.340Z,9.90
2019-04-14T08:43:52.214Z,9.90
2019-04-14T08:46:22.135Z,10.00
2019-04-14T08:48:57.766Z,10.10
2019-04-14T08:51:36.976Z,10.20
2019-04-14T08:54:23.490Z,10.20
2019-04-14T08:57:02.610Z,10.30
2019-04-14T08:59:35.675Z,10.30
2019-04-14T09:02:05.582Z,10.30
2019-04-14T09:04:41.501Z,10.40
2019-04-14T09:07:20.243Z,10.50
2019-04-14T09:09:52.877Z,10.70
2019-04-14T09:12:28.756Z,10.80
2019-04-14T09:14:57.689Z,11.00
2019-04-14T09:17:27.618Z,11.10
2019-04-14T09:19:55.918Z,11.10
2019-04-14T09:22:24.145Z,11.20
2019-04-14T09:24:52.393Z,11.30
2019-04-14T09:27:20.679Z,11.40
2019-04-14T09:29:48.928Z,11.50
2019-04-14T09:32:17.489Z,11.60
2019-04-14T09:34:45.749Z,11.60
2019-04-14T09:37:14.012Z,11.70
2019-04-14T09:39:42.284Z,11.80
2019-04-14T09:42:10.527Z,11.80
2019-04-14T09:44:38.876Z,11.80
2019-04-14T09:47:07.124Z,11.80
2019-04-14T09:49:35.452Z,11.90
2019-04-14T09:52:03.708Z,11.90
2019-04-14T09:54:32.024Z,12.00
2019-04-14T09:57:00.336Z,12.10
2019-04-14T09:59:28.584Z,12.10
2019-04-14T10:01:56.857Z,12.20
2019-04-14T10:04:25.107Z,12.30
2019-04-14T10:06:53.494Z,12.30
2019-04-14T10:09:21.861Z,12.40
2019-04-14T10:11:52.879Z,12.40
2019-04-14T10:14:20.192Z,12.50
2019-04-14T10:16:48.534Z,12.50
2019-04-14T10:19:16.793Z,12.60
2019-04-14T10:21:45.150Z,12.50
2019-04-14T10:24:13.388Z,12.50
2019-04-14T10:26:41.744Z,12.40
2019-04-14T10:29:09.993Z,12.40
2019-04-14T10:31:38.253Z,12.50
2019-04-14T10:34:06.518Z,12.50
2019-04-14T10:36:34.848Z,12.50
2019-04-14T10:39:04.745Z,12.50
2019-04-14T10:41:33.000Z,12.50
2019-04-14T10:44:01.273Z,12.50
2019-04-14T10:46:29.546Z,12.50
2019-04-14T10:48:57.796Z,12.50
2019-04-14T10:51:30.189Z,12.50
2019-04-14T10:53:56.057Z,12.50
2019-04-14T10:56:24.300Z,12.40
2019-04-14T10:58:52.572Z,12.30
2019-04-14T11:01:20.818Z,12.30
2019-04-14T11:03:49.078Z,12.20
2019-04-14T11:06:18.965Z,12.30
2019-04-14T11:08:47.239Z,12.20
2019-04-14T11:11:15.487Z,12.10
2019-04-14T11:13:43.765Z,12.00
2019-04-14T11:16:12.027Z,12.00
2019-04-14T11:18:40.279Z,11.90
2019-04-14T11:21:08.558Z,11.90
2019-04-14T11:23:36.813Z,11.70
2019-04-14T11:26:05.342Z,11.60
2019-04-14T11:28:33.593Z,11.60
2019-04-14T11:31:02.121Z,11.50
2019-04-14T11:33:34.538Z,11.50
2019-04-14T11:36:20.528Z,11.50
2019-04-14T11:38:50.438Z,11.40
2019-04-14T11:41:20.389Z,11.40
2019-04-14T11:43:48.635Z,11.40
2019-04-14T11:46:16.956Z,11.30
2019-04-14T11:48:45.228Z,11.30
2019-04-14T11:51:13.508Z,11.20
2019-04-14T11:53:41.778Z,11.10
2019-04-14T11:56:10.108Z,11.10
2019-04-14T11:58:38.915Z,11.00
2019-04-14T12:01:14.308Z,11.00
2019-04-14T12:03:59.188Z,11.00
2019-04-14T12:06:35.049Z,11.00
2019-04-14T12:09:21.266Z,11.00
2019-04-14T12:11:49.557Z,11.00
2019-04-14T12:14:17.800Z,11.00
2019-04-14T12:16:46.046Z,11.00
2019-04-14T12:19:14.330Z,11.00
2019-04-14T12:21:42.578Z,11.00
2019-04-14T12:24:11.215Z,11.00
2019-04-14T12:26:39.495Z,11.00
2019-04-14T12:29:07.758Z,11.00
2019-04-14T12:31:36.008Z,11.00
2019-04-14T12:34:04.282Z,11.00
2019-04-14T12:36:32.538Z,11.00
2019-04-14T12:39:00.775Z,11.00
2019-04-14T12:41:37.492Z,11.00
2019-04-14T12:44:35.638Z,11.00
2019-04-14T12:47:08.472Z,11.00
2019-04-14T12:49:41.098Z,11.00
2019-04-14T12:52:21.568Z,11.00
2019-04-14T12:54:46.099Z,11.10
2019-04-14T12:57:16.089Z,11.10
2019-04-14T12:59:44.427Z,11.10
2019-04-14T13:02:14.351Z,11.10
2019-04-14T13:04:42.679Z,11.10
2019-04-14T13:07:10.978Z,11.10
2019-04-14T13:09:39.229Z,11.10
2019-04-14T13:12:10.149Z,11.10
2019-04-14T13:14:37.493Z,11.10
2019-04-14T13:17:05.767Z,11.10
2019-04-14T13:19:34.022Z,11.10
2019-04-14T13:22:02.292Z,11.00
2019-04-14T13:24:30.593Z,11.00
2019-04-14T13:26:58.840Z,11.00
2019-04-14T13:29:27.112Z,11.00
2019-04-14T13:31:55.416Z,11.00
2019-04-14T13:34:23.705Z,11.00
2019-04-14T13:36:52.050Z,11.00
2019-04-14T13:39:20.435Z,11.00
2019-04-14T13:41:48.695Z,11.00
2019-04-14T13:44:16.929Z,11.00
2019-04-14T13:46:45.225Z,11.00
2019-04-14T13:49:13.475Z,11.00
2019-04-14T13:51:41.750Z,11.00
2019-04-14T13:54:10.026Z,11.00
2019-04-14T13:56:38.368Z,10.90
2019-04-14T13:59:06.739Z,10.90
2019-04-14T14:01:35.020Z,10.90
2019-04-14T14:04:03.283Z,10.90
2019-04-14T14:06:31.532Z,10.90
2019-04-14T14:08:59.838Z,11.00
2019-04-14T14:11:32.215Z,11.00
2019-04-14T14:14:07.364Z,11.00
2019-04-14T14:16:37.248Z,11.00
2019-04-14T14:19:09.747Z,11.00
2019-04-14T14:21:48.713Z,11.00
2019-04-14T14:24:35.147Z,11.00
2019-04-14T14:27:04.737Z,11.10
2019-04-14T14:29:32.991Z,11.10
2019-04-14T14:32:02.885Z,11.10
2019-04-14T14:34:31.210Z,11.10
2019-04-14T14:36:59.500Z,11.10
2019-04-14T14:39:27.764Z,11.10
2019-04-14T14:41:56.017Z,11.10
2019-04-14T14:44:26.321Z,11.10
2019-04-14T14:47:14.859Z,11.10
2019-04-14T14:49:59.584Z,11.10
2019-04-14T14:52:27.860Z,11.10
2019-04-14T14:54:56.115Z,11.10
2019-04-14T14:57:24.358Z,11.10
2019-04-14T14:59:52.659Z,11.10
2019-04-14T15:02:20.917Z,11.10
2019-04-14T15:04:49.179Z,11.20
2019-04-14T15:07:17.453Z,11.20
2019-04-14T15:09:45.725Z,11.20
2019-04-14T15:12:14.061Z,11.20
2019-04-14T15:14:42.300Z,11.30
2019-04-14T15:17:10.570Z,11.30
2019-04-14T15:19:38.837Z,11.40
2019-04-14T15:22:07.085Z,11.40
2019-04-14T15:24:35.372Z,11.40
2019-04-14T15:27:03.636Z,11.40
2019-04-14T15:29:31.876Z,11.40
2019-04-14T15:32:00.147Z,11.40
2019-04-14T15:34:28.396Z,11.40
2019-04-14T15:36:56.663Z,11.40
2019-04-14T15:39:24.960Z,11.40
2019-04-14T15:41:53.267Z,11.40
2019-04-14T15:44:21.562Z,11.40
2019-04-14T15:46:49.823Z,11.40
2019-04-14T15:49:18.119Z,11.40
2019-04-14T15:51:46.384Z,11.40
2019-04-14T15:54:14.635Z,11.40
2019-04-14T15:57:00.806Z,11.30
2019-04-14T15:59:47.101Z,11.30
2019-04-14T16:02:17.021Z,11.30
2019-04-14T16:04:52.739Z,11.30
2019-04-14T16:07:28.437Z,11.30
2019-04-14T16:10:04.628Z,11.20
2019-04-14T16:12:37.669Z,11.20
2019-04-14T16:15:10.682Z,11.20
2019-04-14T16:17:52.802Z,11.20
2019-04-14T16:20:25.115Z,11.20
2019-04-14T16:22:53.406Z,11.10
2019-04-14T16:25:23.304Z,11.10
2019-04-14T16:27:55.901Z,11.10
2019-04-14T16:30:25.911Z,11.00
2019-04-14T16:32:55.829Z,11.00
2019-04-14T16:35:28.674Z,11.00
2019-04-14T16:37:56.907Z,11.00
2019-04-14T16:40:25.193Z,11.00
2019-04-14T16:42:53.608Z,11.00
2019-04-14T16:45:21.865Z,11.00
2019-04-14T16:47:50.151Z,11.00
2019-04-14T16:50:18.421Z,11.00
2019-04-14T16:52:51.099Z,11.00
2019-04-14T16:55:23.918Z,10.90
2019-04-14T16:58:05.887Z,10.90
2019-04-14T17:00:38.436Z,10.90
2019-04-14T17:03:06.680Z,10.80
2019-04-14T17:05:35.115Z,10.80
2019-04-14T17:08:03.427Z,10.80
2019-04-14T17:10:31.686Z,10.80
2019-04-14T17:13:00.063Z,10.70
2019-04-14T17:15:35.991Z,10.70
2019-04-14T17:18:21.784Z,10.70
2019-04-14T17:20:57.703Z,10.70
2019-04-14T17:23:36.566Z,10.70
2019-04-14T17:26:24.516Z,10.70
2019-04-14T17:28:57.330Z,10.60
2019-04-14T17:31:36.256Z,10.60
2019-04-14T17:34:06.144Z,10.60
2019-04-14T17:36:48.002Z,10.60
2019-04-14T17:39:27.028Z,10.50
2019-04-14T17:41:56.985Z,10.50
2019-04-14T17:44:26.919Z,10.50
2019-04-14T17:47:12.117Z,10.40
2019-04-14T17:49:47.972Z,10.40
2019-04-14T17:52:36.009Z,10.40
2019-04-14T17:55:10.887Z,10.40
2019-04-14T17:57:56.076Z,10.40
2019-04-14T18:00:44.063Z,10.30
2019-04-14T18:03:14.027Z,10.30
2019-04-14T18:05:46.926Z,10.40
2019-04-14T18:08:19.355Z,10.30
2019-04-14T18:11:04.319Z,10.30
2019-04-14T18:13:37.011Z,10.30
2019-04-14T18:16:06.979Z,10.30
2019-04-14T18:18:53.760Z,10.30
2019-04-14T18:21:22.105Z,10.30
2019-04-14T18:23:50.361Z,10.30
2019-04-14T18:26:18.625Z,10.30
2019-04-14T18:28:48.653Z,10.30
2019-04-14T18:31:35.069Z,10.20
2019-04-14T18:34:07.981Z,10.20
2019-04-14T18:36:47.004Z,10.20
2019-04-14T18:39:33.563Z,10.30
2019-04-14T18:42:19.933Z,10.30
2019-04-14T18:44:49.863Z,10.30
2019-04-14T18:47:36.304Z,10.30
2019-04-14T18:50:15.889Z,10.20
2019-04-14T18:52:54.789Z,10.30
2019-04-14T18:55:24.693Z,10.30
2019-04-14T18:57:56.356Z,10.30
2019-04-14T19:00:26.198Z,10.30
2019-04-14T19:02:54.459Z,10.30
2019-04-14T19:05:22.789Z,10.30
2019-04-14T19:07:51.085Z,10.30
2019-04-14T19:10:19.322Z,10.30
2019-04-14T19:12:51.868Z,10.30
2019-04-14T19:15:21.766Z,10.30
2019-04-14T19:17:57.701Z,10.30
2019-04-14T19:20:25.976Z,10.20
2019-04-14T19:22:54.233Z,10.30
2019-04-14T19:25:22.502Z,10.30
2019-04-14T19:27:50.751Z,10.30
2019-04-14T19:30:19.025Z,10.20
2019-04-14T19:32:47.388Z,10.30
2019-04-14T19:35:15.629Z,10.10
2019-04-14T19:37:43.885Z,10.10
2019-04-14T19:40:12.166Z,10.20
2019-04-14T19:42:40.401Z,10.20
2019-04-14T19:45:08.648Z,10.10
2019-04-14T19:47:36.910Z,10.20
2019-04-14T19:50:06.279Z,10.20
2019-04-14T19:52:34.651Z,10.20
2019-04-14T19:55:03.032Z,10.10
2019-04-14T19:57:31.359Z,10.10
2019-04-14T19:59:59.638Z,10.10
2019-04-14T20:02:28.001Z,10.10
2019-04-14T20:04:56.330Z,10.10
2019-04-14T20:07:24.660Z,10.10
2019-04-14T20:09:53.002Z,10.10
2019-04-14T20:12:21.269Z,10.10
2019-04-14T20:14:49.533Z,10.00
2019-04-14T20:17:25.213Z,10.10
2019-04-14T20:19:55.112Z,10.10
2019-04-14T20:22:25.018Z,10.00
2019-04-14T20:24:54.923Z,10.00
2019-04-14T20:27:24.849Z,10.00
2019-04-14T20:29:57.823Z,10.00
2019-04-14T20:32:27.731Z,10.10
2019-04-14T20:34:56.009Z,10.10
2019-04-14T20:37:24.268Z,10.00
2019-04-14T20:39:52.530Z,10.00
2019-04-14T20:42:20.843Z,10.00
2019-04-14T20:44:49.115Z,10.00
2019-04-14T20:47:17.436Z,10.00
2019-04-14T20:49:45.695Z,10.00
2019-04-14T20:52:13.987Z,10.00
2019-04-14T20:54:42.257Z,9.90
2019-04-14T20:57:10.582Z,9.90
2019-04-14T20:59:40.474Z,9.90
2019-04-14T21:02:16.695Z,9.90
2019-04-14T21:04:58.657Z,9.90
2019-04-14T21:07:46.917Z,9.80
2019-04-14T21:10:16.973Z,9.80
2019-04-14T21:12:46.906Z,9.80
2019-04-14T21:15:19.381Z,9.80
2019-04-14T21:17:49.348Z,9.80
2019-04-14T21:20:19.249Z,9.80
2019-04-14T21:22:52.116Z,9.80
2019-04-14T21:25:30.959Z,9.80
2019-04-14T21:28:00.864Z,9.80
2019-04-14T21:30:47.296Z,9.80
2019-04-14T21:33:29.491Z,9.80
2019-04-14T21:36:17.689Z,9.80
2019-04-14T21:38:47.590Z,9.80
2019-04-14T21:41:26.182Z,9.80
2019-04-14T21:43:54.440Z,9.70
2019-04-14T21:46:22.777Z,9.70
2019-04-14T21:48:51.066Z,9.70
2019-04-14T21:51:19.348Z,9.70
2019-04-14T21:53:48.386Z,9.70
2019-04-14T21:56:16.750Z,9.70
2019-04-14T21:58:49.669Z,9.60
2019-04-14T22:01:39.021Z,9.60
2019-04-14T22:04:18.153Z,9.60
2019-04-14T22:06:48.087Z,9.60
2019-04-14T22:09:30.259Z,9.60
2019-04-14T22:11:59.698Z,9.60
2019-04-14T22:14:28.003Z,9.60
2019-04-14T22:16:56.261Z,9.60
2019-04-14T22:19:24.573Z,9.50
2019-04-14T22:21:52.815Z,9.50
2019-04-14T22:24:21.095Z,9.50
2019-04-14T22:26:49.337Z,9.60
2019-04-14T22:29:17.578Z,9.50
2019-04-14T22:31:45.869Z,9.50
2019-04-14T22:34:14.111Z,9.50
2019-04-14T22:36:42.368Z,9.50
2019-04-14T22:39:12.259Z,9.50
2019-04-14T22:41:40.519Z,9.50
2019-04-14T22:44:08.770Z,9.40
2019-04-14T22:46:37.050Z,9.40
2019-04-14T22:49:05.453Z,9.40
2019-04-14T22:51:33.807Z,9.30
2019-04-14T22:54:02.045Z,9.30
2019-04-14T22:56:39.016Z,9.30
2019-04-14T22:59:00.256Z,9.20
2019-04-14T23:01:32.845Z,9.20
2019-04-14T23:04:02.721Z,9.20
2019-04-14T23:06:49.139Z,9.20
2019-04-14T23:09:19.003Z,9.20
2019-04-14T23:11:48.937Z,9.20
2019-04-14T23:14:30.781Z,9.10
2019-04-14T23:17:17.165Z,9.10
2019-04-14T23:19:50.023Z,9.10
2019-04-14T23:22:22.666Z,9.20
2019-04-14T23:24:51.663Z,9.10
2019-04-14T23:27:19.926Z,9.10
2019-04-14T23:29:48.194Z,9.10
2019-04-14T23:32:16.452Z,9.10
2019-04-14T23:34:44.794Z,9.10
2019-04-14T23:37:13.107Z,9.10
2019-04-14T23:39:41.450Z,9.10
2019-04-14T23:42:09.777Z,9.00
2019-04-14T23:44:38.009Z,9.00
2019-04-14T23:47:06.289Z,9.00
2019-04-14T23:49:34.616Z,9.00
2019-04-14T23:52:02.898Z,9.00
2019-04-14T23:54:31.123Z,9.00
2019-04-14T23:57:05.378Z,8.90
2019-04-14T23:59:29.355Z,8.90
